Time;durP1;ratioP1;P1;durP2;ratioP2;P2;SDS_P1;SDS_P2;PMS_P1;PMS_P2;Temp;Humidity;BMP_temperature;BMP_pressure;BME280_temperature;BME280_humidity;BME280_pressure;Samples;Min_cycle;Max_cycle;Signal;HPM_P1;HPM_P2
2022/06/07 00:02:14;;;;;;;4.50;3.10;;;22.20;66.00;;;;;;1819609;79;21127;-58
2022/06/07 00:04:43;;;;;;;5.47;3.20;;;22.30;65.80;;;;;;1819670;79;21123;-58
2022/06/07 00:07:12;;;;;;;3.60;2.98;;;22.30;65.80;;;;;;1819533;78;21114;-58
2022/06/07 00:09:41;;;;;;;7.03;2.95;;;22.20;65.90;;;;;;1819531;79;21057;-58
2022/06/07 00:12:10;;;;;;;3.95;3.30;;;22.20;66.10;;;;;;1819603;78;21158;-58
2022/06/07 00:14:39;;;;;;;4.20;3.45;;;22.10;66.40;;;;;;1819654;78;21165;-58
2022/06/07 00:17:09;;;;;;;4.37;3.20;;;22.10;66.80;;;;;;1819564;78;21061;-58
2022/06/07 00:19:38;;;;;;;6.92;4.08;;;22.10;66.80;;;;;;1819570;78;21053;-58
2022/06/07 00:22:07;;;;;;;5.78;3.80;;;22.10;66.50;;;;;;1819514;79;21029;-58
2022/06/07 00:24:36;;;;;;;6.95;4.05;;;22.00;66.60;;;;;;1819559;78;21487;-58
2022/06/07 00:27:06;;;;;;;7.45;4.60;;;22.00;66.90;;;;;;1819557;79;21136;-58
2022/06/07 00:29:37;;;;;;;6.12;4.50;;;22.00;67.30;;;;;;1819604;78;21511;-58
2022/06/07 00:32:08;;;;;;;6.97;4.53;;;22.00;67.20;;;;;;1819760;78;21135;-58
2022/06/07 00:34:37;;;;;;;10.48;5.75;;;21.90;67.50;;;;;;1819657;79;21149;-58
2022/06/07 00:37:06;;;;;;;10.60;5.58;;;22.00;67.60;;;;;;1819629;78;21522;-58
2022/06/07 00:39:35;;;;;;;6.75;4.85;;;22.00;67.50;;;;;;1819626;78;21060;-58
2022/06/07 00:42:05;;;;;;;8.55;4.90;;;22.00;67.20;;;;;;1819636;79;21484;-58
2022/06/07 00:44:39;;;;;;;7.60;5.40;;;21.90;67.10;;;;;;1819649;78;21040;-58
2022/06/07 00:47:15;;;;;;;;;;;21.90;67.30;;;;;;1822439;78;21131;-58
2022/06/07 00:49:50;;;;;;;9.00;5.25;;;21.90;67.20;;;;;;1816565;79;20150;-58
2022/06/07 00:52:21;;;;;;;6.33;5.05;;;21.80;66.90;;;;;;1816484;79;21093;-58
2022/06/07 00:54:50;;;;;;;5.92;4.75;;;21.80;67.20;;;;;;1816829;79;21559;-57
2022/06/07 00:57:24;;;;;;;8.93;6.65;;;21.80;67.20;;;;;;1816308;79;21064;-58
2022/06/07 00:59:53;;;;;;;13.13;6.87;;;21.70;67.20;;;;;;1816694;79;21120;-58
2022/06/07 01:02:23;;;;;;;9.55;6.15;;;21.60;67.40;;;;;;1816493;78;21081;-58
2022/06/07 01:04:52;;;;;;;13.00;6.85;;;21.60;68.50;;;;;;1816621;78;21111;-58
2022/06/07 01:12:58;;;;;;;8.23;5.85;;;21.60;67.90;;;;;;1834481;78;21058;-58
2022/06/07 01:15:29;;;;;;;6.97;5.58;;;21.50;67.90;;;;;;1834528;77;21108;-58
2022/06/07 01:17:58;;;;;;;10.05;5.92;;;21.50;67.80;;;;;;1816639;79;21037;-57
2022/06/07 01:20:28;;;;;;;7.67;5.35;;;21.40;67.90;;;;;;1816528;79;21034;-58
2022/06/07 01:22:57;;;;;;;10.68;6.67;;;21.40;68.00;;;;;;1816556;79;21033;-58
2022/06/07 01:25:26;;;;;;;9.48;6.47;;;21.40;67.90;;;;;;1816667;78;21053;-58
2022/06/07 01:27:57;;;;;;;9.78;5.80;;;21.40;68.30;;;;;;1834398;78;21069;-58
2022/06/07 01:30:27;;;;;;;12.43;7.22;;;21.40;68.30;;;;;;1802928;79;21074;-58
2022/06/07 01:32:57;;;;;;;13.32;8.05;;;21.40;68.60;;;;;;1802779;80;21046;-58
2022/06/07 01:35:26;;;;;;;18.80;10.55;;;21.40;68.40;;;;;;1814579;79;21037;-58
2022/06/07 01:37:55;;;;;;;20.02;9.50;;;21.30;67.70;;;;;;1814727;79;21151;-58
2022/06/07 01:42:58;;;;;;;17.80;9.18;;;21.20;68.20;;;;;;1820110;78;21240;-58
2022/06/07 01:45:27;;;;;;;18.27;7.95;;;21.20;68.60;;;;;;1814686;79;21483;-58
2022/06/07 01:47:56;;;;;;;17.20;10.13;;;21.20;68.80;;;;;;1814637;79;21086;-58
2022/06/07 01:50:26;;;;;;;11.30;8.20;;;21.20;68.90;;;;;;1817211;78;21229;-58
2022/06/07 01:52:55;;;;;;;12.98;8.08;;;21.20;68.80;;;;;;1817177;78;21111;-58
2022/06/07 01:55:26;;;;;;;8.95;6.87;;;21.20;68.40;;;;;;1817148;78;21112;-58
2022/06/07 01:57:56;;;;;;;11.00;6.75;;;21.10;68.60;;;;;;1817170;79;21116;-58
2022/06/07 02:00:26;;;;;;;15.45;7.15;;;21.10;69.00;;;;;;1817132;79;21131;-58
2022/06/07 02:02:55;;;;;;;10.10;7.17;;;21.10;69.10;;;;;;1817203;78;21570;-58
2022/06/07 02:05:24;;;;;;;14.40;6.97;;;21.10;69.30;;;;;;1817384;79;21135;-58
2022/06/07 02:07:55;;;;;;;10.40;6.20;;;21.00;69.20;;;;;;1817222;78;21142;-58
2022/06/07 02:10:26;;;;;;;11.38;5.85;;;21.00;69.40;;;;;;1816984;78;21144;-58
2022/06/07 02:12:55;;;;;;;10.80;6.37;;;21.00;69.40;;;;;;1817239;78;21053;-58
2022/06/07 02:15:24;;;;;;;13.25;7.28;;;21.00;69.00;;;;;;1817067;78;21053;-58
2022/06/07 02:17:53;;;;;;;11.18;5.72;;;21.00;68.80;;;;;;1817100;79;21460;-58
2022/06/07 02:20:24;;;;;;;14.68;7.08;;;21.00;69.10;;;;;;1817265;78;21146;-58
2022/06/07 02:22:52;;;;;;;10.63;6.70;;;21.10;68.80;;;;;;1817338;78;21119;-58
2022/06/07 02:25:22;;;;;;;12.18;7.83;;;21.00;68.40;;;;;;1817129;79;21128;-58
2022/06/07 02:27:51;;;;;;;11.95;7.60;;;21.00;68.90;;;;;;1817085;79;21076;-58
2022/06/07 02:30:21;;;;;;;16.75;11.10;;;21.00;68.40;;;;;;1817168;78;21073;-58
2022/06/07 02:32:50;;;;;;;14.07;7.90;;;21.00;68.30;;;;;;1817213;79;21115;-58
2022/06/07 02:35:19;;;;;;;12.85;8.48;;;21.00;68.50;;;;;;1817091;78;21123;-58
2022/06/07 02:37:49;;;;;;;9.88;6.65;;;21.00;68.50;;;;;;1817025;79;21061;-58
2022/06/07 02:40:19;;;;;;;22.42;14.73;;;21.10;68.40;;;;;;1817000;79;21021;-58
2022/06/07 02:42:48;;;;;;;12.60;6.85;;;21.10;68.60;;;;;;1817075;79;21044;-58
2022/06/07 02:45:18;;;;;;;12.25;6.65;;;21.20;69.10;;;;;;1817154;79;21057;-58
2022/06/07 02:47:47;;;;;;;12.03;7.53;;;21.30;68.60;;;;;;1817060;78;21111;-58
2022/06/07 02:50:18;;;;;;;9.93;6.80;;;21.40;68.40;;;;;;1815112;77;21084;-58
2022/06/07 02:52:49;;;;;;;11.00;7.00;;;21.50;68.00;;;;;;1875141;75;21098;-58
2022/06/07 02:55:20;;;;;;;13.60;5.90;;;21.60;67.90;;;;;;1833541;78;21065;-58
2022/06/07 02:57:50;;;;;;;11.00;6.30;;;21.60;67.90;;;;;;1834466;78;21060;-58
2022/06/07 03:00:21;;;;;;;8.53;4.40;;;21.60;66.80;;;;;;1834270;78;21129;-58
2022/06/07 03:02:51;;;;;;;6.47;3.72;;;21.60;66.60;;;;;;1834372;78;21143;-57
2022/06/07 03:05:21;;;;;;;15.15;3.55;;;21.70;66.70;;;;;;1834529;77;21287;-58
2022/06/07 03:07:52;;;;;;;7.58;3.60;;;21.70;66.00;;;;;;1834258;78;21605;-57
2022/06/07 03:10:22;;;;;;;6.05;4.12;;;21.60;65.00;;;;;;1834336;78;21132;-58
2022/06/07 03:12:51;;;;;;;9.68;4.60;;;21.50;64.50;;;;;;1834591;77;21099;-58
2022/06/07 03:15:22;;;;;;;4.42;3.25;;;21.30;64.80;;;;;;1834298;78;21594;-58
2022/06/07 03:17:52;;;;;;;6.67;3.87;;;21.30;65.30;;;;;;1802944;78;21089;-58
2022/06/07 03:20:23;;;;;;;4.03;2.77;;;21.30;64.50;;;;;;1802600;78;21115;-58
2022/06/07 03:22:52;;;;;;;4.37;2.87;;;21.30;64.90;;;;;;1814490;79;21174;-58
2022/06/07 03:25:24;;;;;;;5.65;3.58;;;21.30;64.50;;;;;;1814508;79;21105;-58
2022/06/07 03:27:54;;;;;;;8.18;3.85;;;21.40;65.00;;;;;;1813978;79;21105;-58
2022/06/07 03:30:23;;;;;;;17.77;4.60;;;21.60;64.40;;;;;;1814362;79;21123;-58
2022/06/07 03:32:54;;;;;;;5.35;3.08;;;21.70;63.30;;;;;;1814512;79;21119;-58
2022/06/07 03:35:24;;;;;;;6.40;3.00;;;21.70;63.60;;;;;;1814406;79;21117;-58
2022/06/07 03:37:55;;;;;;;6.53;3.60;;;21.80;63.60;;;;;;1814486;79;21109;-58
2022/06/07 03:40:44;;;;;;;6.80;3.62;;;21.80;63.00;;;;;;1814488;79;21504;-58
2022/06/07 03:43:16;;;;;;;5.62;3.08;;;21.80;62.40;;;;;;1814231;78;21109;-58
2022/06/07 03:45:45;;;;;;;9.15;3.92;;;21.70;62.10;;;;;;1814472;79;21152;-58
2022/06/07 03:48:16;;;;;;;5.33;2.80;;;21.70;62.20;;;;;;1814430;79;21089;-58
2022/06/07 03:50:45;;;;;;;3.30;2.85;;;21.70;62.30;;;;;;1814386;78;21104;-58
2022/06/07 03:53:15;;;;;;;10.70;2.85;;;21.70;62.60;;;;;;1814576;79;21053;-58
2022/06/07 03:55:47;;;;;;;4.62;2.02;;;21.80;62.90;;;;;;1814404;79;21127;-58
2022/06/07 03:58:18;;;;;;;3.98;2.12;;;21.90;62.70;;;;;;1814426;79;21104;-58
2022/06/07 04:00:47;;;;;;;4.12;2.17;;;22.00;62.00;;;;;;1875045;76;21093;-58
2022/06/07 04:03:16;;;;;;;6.00;2.17;;;22.10;61.90;;;;;;1834271;78;21120;-58
2022/06/07 04:05:46;;;;;;;3.10;2.08;;;22.20;61.40;;;;;;1834230;77;21024;-58
2022/06/07 04:08:17;;;;;;;4.08;2.08;;;22.20;61.20;;;;;;1834209;77;21072;-58
2022/06/07 04:10:59;;;;;;;2.47;2.17;;;22.20;61.10;;;;;;1802863;78;21620;-58
2022/06/07 04:13:33;;;;;;;7.85;2.60;;;22.30;61.00;;;;;;1801252;79;21049;-58
2022/06/07 04:16:08;;;;;;;6.28;2.60;;;22.40;60.90;;;;;;1814257;79;21536;-58
2022/06/07 04:18:39;;;;;;;5.70;2.30;;;22.50;61.10;;;;;;1814215;79;21188;-58
2022/06/07 04:21:08;;;;;;;4.92;1.75;;;22.60;61.00;;;;;;1875069;76;21038;-58
2022/06/07 04:23:38;;;;;;;5.33;2.30;;;22.80;60.20;;;;;;1834250;78;21130;-58
2022/06/07 04:26:13;;;;;;;5.78;2.10;;;22.80;59.90;;;;;;1834188;78;21044;-58
2022/06/07 04:28:43;;;;;;;4.17;2.40;;;22.90;59.90;;;;;;1816318;78;21044;-58
2022/06/07 04:31:14;;;;;;;3.60;1.67;;;23.00;59.30;;;;;;1816412;79;21164;-58
2022/06/07 04:33:44;;;;;;;3.65;2.02;;;23.10;59.10;;;;;;1816341;79;21037;-58
2022/06/07 04:36:20;;;;;;;4.42;3.02;;;23.10;58.70;;;;;;1834134;78;21026;-58
2022/06/07 04:38:51;;;;;;;18.42;7.92;;;23.00;58.70;;;;;;1802745;78;21101;-58
2022/06/07 04:41:23;;;;;;;4.33;2.08;;;23.00;58.90;;;;;;1802482;79;21029;-58
2022/06/07 04:43:54;;;;;;;4.97;2.60;;;23.00;58.90;;;;;;1814712;78;21101;-58
2022/06/07 04:46:26;;;;;;;6.53;2.02;;;23.00;59.10;;;;;;1875133;76;21007;-58
2022/06/07 04:48:56;;;;;;;3.27;1.90;;;23.00;58.90;;;;;;1834308;78;21140;-58
2022/06/07 04:51:30;;;;;;;5.50;2.20;;;23.10;58.60;;;;;;1829302;76;21099;-58
2022/06/07 04:54:02;;;;;;;4.53;1.95;;;23.10;58.80;;;;;;1825915;77;21106;-59
2022/06/07 04:56:35;;;;;;;5.15;2.20;;;23.30;58.90;;;;;;1794605;78;21098;-59
2022/06/07 04:59:06;;;;;;;6.28;2.40;;;23.50;58.40;;;;;;1794264;79;21001;-59
2022/06/07 05:01:39;;;;;;;3.08;2.40;;;23.60;58.60;;;;;;1816845;79;21029;-59
2022/06/07 05:04:10;;;;;;;7.83;2.30;;;23.70;58.20;;;;;;1816805;78;21052;-59
2022/06/07 05:06:42;;;;;;;7.75;2.50;;;23.80;58.20;;;;;;1816791;79;21103;-59
2022/06/07 05:09:24;;;;;;;6.67;2.90;;;23.80;57.50;;;;;;1816642;79;21100;-59
2022/06/07 05:11:58;;;;;;;5.17;2.20;;;23.80;57.00;;;;;;1816545;78;21075;-59
2022/06/07 05:14:28;;;;;;;6.05;2.05;;;23.80;57.20;;;;;;1820806;78;21050;-59
2022/06/07 05:16:58;;;;;;;5.70;2.10;;;23.90;57.30;;;;;;1816889;79;21043;-59
2022/06/07 05:19:33;;;;;;;5.17;2.00;;;23.90;56.70;;;;;;1816925;78;21084;-59
2022/06/07 05:22:04;;;;;;;6.20;2.30;;;23.90;56.80;;;;;;1816981;79;21126;-59
2022/06/07 05:24:35;;;;;;;4.08;2.10;;;24.00;56.50;;;;;;1816867;78;21126;-59
2022/06/07 05:27:07;;;;;;;4.72;1.95;;;24.00;56.30;;;;;;1816976;79;21049;-59
2022/06/07 05:29:53;;;;;;;7.03;2.70;;;24.00;56.10;;;;;;1817159;78;21090;-59
2022/06/07 05:32:42;;;;;;;3.87;1.75;;;24.10;56.40;;;;;;1817035;78;21108;-59
2022/06/07 05:35:14;;;;;;;5.03;2.10;;;24.20;55.60;;;;;;1817010;78;21186;-59
2022/06/07 05:37:45;;;;;;;4.42;1.92;;;24.30;55.60;;;;;;1816996;78;21160;-59
2022/06/07 05:40:15;;;;;;;2.75;1.60;;;24.30;55.50;;;;;;1817073;79;21093;-59
2022/06/07 05:42:45;;;;;;;3.22;1.87;;;24.40;55.00;;;;;;1817135;78;21135;-59
2022/06/07 05:45:16;;;;;;;5.25;1.70;;;24.50;55.20;;;;;;1817053;78;21080;-59
2022/06/07 05:47:46;;;;;;;4.05;1.50;;;24.60;55.10;;;;;;1817141;79;21053;-59
2022/06/07 05:50:15;;;;;;;4.10;1.70;;;24.70;55.00;;;;;;1817058;78;21140;-60
2022/06/07 05:52:46;;;;;;;2.55;1.30;;;24.90;54.70;;;;;;1817026;78;21080;-59
2022/06/07 05:55:16;;;;;;;25.70;3.05;;;25.10;54.50;;;;;;1817006;79;21134;-59
2022/06/07 05:57:49;;;;;;;5.55;1.80;;;25.20;54.20;;;;;;1816955;79;21150;-59
2022/06/07 06:00:18;;;;;;;4.72;1.80;;;25.40;53.70;;;;;;1816855;78;21041;-59
2022/06/07 06:02:49;;;;;;;2.92;1.67;;;25.50;53.90;;;;;;1816946;79;21130;-59
2022/06/07 06:05:26;;;;;;;4.12;1.57;;;25.50;53.50;;;;;;1817231;78;21163;-59
2022/06/07 06:10:43;;;;;;;6.33;2.87;;;25.40;52.30;;;;;;1817017;78;21143;-59
2022/06/07 06:13:12;;;;;;;7.75;3.75;;;25.30;52.70;;;;;;1817060;79;21092;-59
2022/06/07 06:15:42;;;;;;;4.17;2.08;;;25.30;52.90;;;;;;1817050;78;21156;-59
2022/06/07 06:18:12;;;;;;;5.05;2.25;;;25.30;52.70;;;;;;1817187;79;21096;-59
2022/06/07 06:20:43;;;;;;;8.73;1.75;;;25.40;52.80;;;;;;1817025;79;21108;-59
2022/06/07 06:23:14;;;;;;;2.00;1.77;;;25.50;52.50;;;;;;1817062;78;21091;-59
2022/06/07 06:25:44;;;;;;;2.20;1.50;;;25.60;53.00;;;;;;1817116;79;21065;-59
2022/06/07 06:28:13;;;;;;;2.20;1.70;;;25.80;52.60;;;;;;1817198;78;21060;-59
2022/06/07 06:30:47;;;;;;;2.72;1.60;;;25.90;51.70;;;;;;1817157;79;21476;-59
2022/06/07 06:33:24;;;;;;;5.17;2.15;;;25.90;51.60;;;;;;1817054;78;21088;-59
2022/06/07 06:35:55;;;;;;;8.40;2.30;;;25.90;51.70;;;;;;1817082;78;21045;-59
2022/06/07 06:38:26;;;;;;;6.75;1.80;;;26.00;51.00;;;;;;1817278;78;21105;-59
2022/06/07 06:40:56;;;;;;;1.90;1.50;;;26.00;51.10;;;;;;1817070;78;21085;-59
2022/06/07 06:43:26;;;;;;;4.25;1.52;;;26.10;51.20;;;;;;1817083;78;21131;-59
2022/06/07 06:46:08;;;;;;;2.47;1.27;;;26.20;50.50;;;;;;1818180;78;21107;-59
2022/06/07 06:48:38;;;;;;;4.78;2.25;;;26.20;49.50;;;;;;1817101;78;21127;-60
2022/06/07 06:51:10;;;;;;;2.10;1.50;;;26.10;49.40;;;;;;1817197;78;21053;-59
2022/06/07 06:53:45;;;;;;;2.83;1.20;;;26.10;49.50;;;;;;1817113;77;21076;-59
2022/06/07 06:56:21;;;;;;;3.58;1.50;;;26.10;49.80;;;;;;1817101;78;21157;-59
2022/06/07 06:58:52;;;;;;;2.70;1.35;;;26.30;49.60;;;;;;1817170;79;21045;-59
2022/06/07 07:01:31;;;;;;;5.53;1.60;;;26.30;49.60;;;;;;1817038;78;21108;-59
2022/06/07 07:03:58;;;;;;;4.25;1.70;;;26.40;49.50;;;;;;1817033;78;21120;-59
2022/06/07 07:06:28;;;;;;;4.72;1.42;;;26.50;49.20;;;;;;1817189;78;21021;-59
2022/06/07 07:08:57;;;;;;;2.83;1.60;;;26.70;48.70;;;;;;1817041;79;21389;-59
2022/06/07 07:11:33;;;;;;;10.20;1.85;;;26.70;48.50;;;;;;1817125;78;21017;-59
2022/06/07 07:14:05;;;;;;;3.35;1.27;;;26.80;48.30;;;;;;1817039;78;21077;-59
2022/06/07 07:16:41;;;;;;;4.28;1.62;;;26.80;47.10;;;;;;1817137;78;21049;-59
2022/06/07 07:19:14;;;;;;;6.22;2.95;;;26.80;47.50;;;;;;1817066;78;21061;-59
2022/06/07 07:21:46;;;;;;;4.90;1.90;;;26.90;47.70;;;;;;1816844;78;21223;-59
2022/06/07 07:24:19;;;;;;;4.33;1.32;;;26.90;47.20;;;;;;1816929;79;21119;-59
2022/06/07 07:26:50;;;;;;;4.58;1.72;;;27.00;46.70;;;;;;1816972;77;21072;-59
2022/06/07 07:29:23;;;;;;;9.53;1.67;;;27.10;46.90;;;;;;1816973;78;21053;-59
2022/06/07 07:31:54;;;;;;;3.10;1.60;;;27.10;46.70;;;;;;1816882;78;21076;-59
2022/06/07 07:34:25;;;;;;;11.48;1.80;;;27.20;46.00;;;;;;1817011;79;21068;-60
2022/06/07 07:36:55;;;;;;;8.08;1.90;;;27.30;46.60;;;;;;1816569;78;21053;-65
2022/06/07 07:39:26;;;;;;;3.20;1.95;;;27.30;46.10;;;;;;1815696;78;21052;-63
2022/06/07 07:42:08;;;;;;;6.95;1.70;;;27.30;46.00;;;;;;1816284;78;21053;-62
2022/06/07 07:44:46;;;;;;;4.53;1.35;;;27.30;45.40;;;;;;1815270;78;21139;-61
2022/06/07 07:47:17;;;;;;;7.97;2.95;;;27.40;45.50;;;;;;1815673;78;21627;-67
2022/06/07 07:49:47;;;;;;;2.35;1.70;;;27.40;44.80;;;;;;1816072;79;21061;-64
2022/06/07 07:52:19;;;;;;;2.52;1.45;;;27.40;44.60;;;;;;1816158;78;21061;-64
2022/06/07 07:54:49;;;;;;;5.40;1.85;;;27.40;44.40;;;;;;1816168;78;21108;-67
2022/06/07 07:57:19;;;;;;;12.70;1.67;;;27.50;44.70;;;;;;1816384;79;21069;-68
2022/06/07 07:59:49;;;;;;;6.05;1.72;;;27.60;44.90;;;;;;1815229;79;21448;-67
2022/06/07 08:02:22;;;;;;;7.70;2.08;;;27.70;44.60;;;;;;1814826;79;21077;-66
2022/06/07 08:04:55;;;;;;;9.25;2.17;;;27.70;43.90;;;;;;1813897;77;21120;-66
2022/06/07 08:07:24;;;;;;;9.58;2.42;;;27.80;43.70;;;;;;1814594;78;21021;-64
2022/06/07 08:09:53;;;;;;;5.70;1.47;;;27.90;43.30;;;;;;1814795;78;21084;-65
2022/06/07 08:12:22;;;;;;;2.83;1.30;;;27.80;43.20;;;;;;1814876;79;21093;-65
2022/06/07 08:14:51;;;;;;;6.55;1.75;;;27.80;42.90;;;;;;1814803;78;21053;-65
2022/06/07 08:17:20;;;;;;;8.13;2.98;;;27.80;43.20;;;;;;1814721;79;21069;-65
2022/06/07 08:19:50;;;;;;;9.10;2.33;;;27.90;43.10;;;;;;1814745;78;21066;-65
2022/06/07 08:22:19;;;;;;;6.55;1.47;;;27.90;42.90;;;;;;1814754;78;21108;-62
2022/06/07 08:24:49;;;;;;;4.72;1.52;;;28.00;43.00;;;;;;1814948;79;21129;-62
2022/06/07 08:27:20;;;;;;;6.65;1.55;;;28.10;42.50;;;;;;1814815;79;21053;-65
2022/06/07 08:29:49;;;;;;;4.50;1.40;;;28.10;42.20;;;;;;1814651;78;21127;-65
2022/06/07 08:32:18;;;;;;;6.08;1.40;;;28.20;42.50;;;;;;1814906;78;21038;-67
2022/06/07 08:37:37;;;;;;;5.28;1.72;;;28.40;42.40;;;;;;1814684;78;21175;-63
2022/06/07 08:40:08;;;;;;;5.00;2.35;;;28.50;42.50;;;;;;1814958;78;21097;-62
2022/06/07 08:42:40;;;;;;;4.85;1.75;;;28.60;42.30;;;;;;1814521;78;21085;-65
2022/06/07 08:45:18;;;;;;;7.12;2.20;;;28.70;42.40;;;;;;1814629;78;21583;-65
2022/06/07 08:47:56;;;;;;;2.67;1.62;;;28.80;42.00;;;;;;1814842;78;21037;-66
2022/06/07 08:50:36;;;;;;;8.78;1.85;;;28.80;42.00;;;;;;1814970;79;21100;-66
2022/06/07 08:53:11;;;;;;;6.00;1.37;;;28.90;42.20;;;;;;1812784;77;21563;-68
2022/06/07 08:55:49;;;;;;;6.22;1.60;;;28.80;41.60;;;;;;1826038;78;21052;-65
2022/06/07 08:58:21;;;;;;;2.98;2.10;;;28.70;41.80;;;;;;1863495;76;21122;-69
2022/06/07 09:01:04;;;;;;;14.35;2.17;;;28.80;42.00;;;;;;1863557;76;21088;-68
2022/06/07 09:03:47;;;;;;;4.20;1.80;;;28.80;42.00;;;;;;1863479;76;21060;-70
2022/06/07 09:06:26;;;;;;;7.60;1.72;;;28.80;41.60;;;;;;1862802;76;21049;-68
2022/06/07 09:08:58;;;;;;;7.30;1.70;;;28.80;41.60;;;;;;1863182;75;21041;-69
2022/06/07 09:14:29;;;;;;;2.47;1.47;;;28.90;41.40;;;;;;1863892;76;21045;-70
2022/06/07 09:16:59;;;;;;;4.30;1.32;;;29.00;41.50;;;;;;1828302;76;21135;-66
2022/06/07 09:19:30;;;;;;;3.33;1.67;;;29.10;41.00;;;;;;1863956;77;21009;-67
2022/06/07 09:22:02;;;;;;;6.30;1.45;;;29.00;41.10;;;;;;1863693;76;21146;-63
2022/06/07 09:24:53;;;;;;;6.55;1.50;;;29.00;40.20;;;;;;1972861;73;22094;-65
2022/06/07 09:27:26;;;;;;;7.33;1.72;;;29.00;41.20;;;;;;1946245;73;21093;-64
2022/06/07 09:29:59;;;;;;;5.33;2.12;;;29.10;41.10;;;;;;1946915;73;21521;-63
2022/06/07 09:32:31;;;;;;;4.87;1.77;;;29.20;40.80;;;;;;1947946;73;21097;-65
2022/06/07 09:35:02;;;;;;;3.98;1.30;;;29.10;40.30;;;;;;1947947;73;21473;-64
2022/06/07 09:37:34;;;;;;;3.02;1.55;;;29.10;40.60;;;;;;1948238;73;21139;-64
2022/06/07 09:40:12;;;;;;;5.00;1.55;;;29.10;40.30;;;;;;1947688;73;21023;-63
2022/06/07 09:42:41;;;;;;;4.25;1.65;;;29.10;40.40;;;;;;1947179;73;21127;-67
2022/06/07 09:45:21;;;;;;;2.42;1.40;;;29.10;40.50;;;;;;1948185;73;21030;-62
2022/06/07 09:47:50;;;;;;;5.17;1.50;;;29.10;41.10;;;;;;1948222;73;21039;-63
2022/06/07 09:50:37;;;;;;;2.60;1.20;;;29.10;40.80;;;;;;1948420;73;21127;-63
2022/06/07 09:53:12;;;;;;;6.28;1.60;;;29.10;40.60;;;;;;1948519;73;21086;-65
2022/06/07 09:55:53;;;;;;;1.57;1.35;;;29.30;40.80;;;;;;1947636;73;20991;-69
2022/06/07 09:58:42;;;;;;;6.47;1.35;;;29.40;40.80;;;;;;1947476;73;21108;-69
2022/06/07 10:01:32;;;;;;;6.55;1.70;;;29.50;40.10;;;;;;1947980;73;21065;-66
2022/06/07 10:04:13;;;;;;;5.50;1.70;;;29.50;40.50;;;;;;1947756;73;21125;-72
2022/06/07 10:06:54;;;;;;;2.58;1.27;;;29.50;40.30;;;;;;1948016;73;21022;-67
2022/06/07 10:09:55;;;;;;;5.80;1.98;;;29.60;40.30;;;;;;1947340;73;21042;-66
2022/06/07 10:12:30;;;;;;;4.75;1.70;;;29.60;40.30;;;;;;1948483;73;21075;-65
2022/06/07 10:15:02;;;;;;;2.45;1.60;;;29.70;40.20;;;;;;1947397;73;21073;-65
2022/06/07 10:18:00;;;;;;;6.40;1.80;;;29.60;40.30;;;;;;1948734;73;21084;-65
2022/06/07 10:20:31;;;;;;;6.35;1.45;;;29.50;40.30;;;;;;1948253;73;21054;-64
2022/06/07 10:23:09;;;;;;;2.42;1.30;;;29.50;40.70;;;;;;1946327;73;21019;-64
2022/06/07 10:25:41;;;;;;;4.37;1.72;;;29.40;40.60;;;;;;1935592;74;21059;-64
2022/06/07 10:28:31;;;;;;;4.12;1.62;;;29.40;40.80;;;;;;1893623;74;21086;-61
2022/06/07 10:31:09;;;;;;;3.08;1.20;;;29.40;41.00;;;;;;1935514;74;21148;-67
2022/06/07 10:33:56;;;;;;;14.05;2.60;;;29.50;40.70;;;;;;1934561;74;21058;-71
2022/06/07 10:36:37;;;;;;;4.92;2.62;;;29.50;40.90;;;;;;1934680;74;21116;-67
2022/06/07 10:39:24;;;;;;;5.45;1.62;;;29.50;40.50;;;;;;1934770;74;21019;-66
2022/06/07 10:42:08;;;;;;;2.50;1.17;;;29.60;40.20;;;;;;1933890;74;21023;-66
2022/06/07 10:44:46;;;;;;;1.63;1.30;;;29.70;40.40;;;;;;1935411;74;21039;-66
2022/06/07 10:47:20;;;;;;;5.17;1.50;;;29.70;40.40;;;;;;1934197;74;21070;-64
2022/06/07 10:50:15;;;;;;;5.20;1.65;;;29.70;40.60;;;;;;1933404;74;21100;-65
2022/06/07 10:52:50;;;;;;;2.35;1.20;;;29.60;41.00;;;;;;1934078;74;21066;-65
2022/06/07 10:55:39;;;;;;;;;;;29.70;40.90;;;;;;1936712;74;21438;-63
2022/06/07 10:58:19;;;;;;;4.65;2.45;;;29.70;40.70;;;;;;1934079;74;20156;-63
2022/06/07 11:00:57;;;;;;;7.28;1.30;;;29.70;40.70;;;;;;1933915;74;21437;-66
2022/06/07 11:03:53;;;;;;;5.78;1.35;;;29.70;40.40;;;;;;1933793;74;21112;-65
2022/06/07 11:09:44;;;;;;;1.87;1.10;;;29.70;40.30;;;;;;1934002;74;21181;-62
2022/06/07 11:12:22;;;;;;;2.77;1.33;;;29.70;40.50;;;;;;1933532;74;21042;-64
2022/06/07 11:15:08;;;;;;;4.92;1.30;;;29.70;40.50;;;;;;1933906;74;21015;-64
2022/06/07 11:17:55;;;;;;;4.40;1.60;;;29.70;40.50;;;;;;1933728;74;21085;-65
2022/06/07 11:20:31;;;;;;;2.58;1.42;;;29.70;40.60;;;;;;1933342;74;21102;-63
2022/06/07 11:23:09;;;;;;;2.30;1.30;;;29.70;40.70;;;;;;1933917;73;21027;-66
2022/06/07 11:25:41;;;;;;;2.77;1.35;;;29.70;40.40;;;;;;1933265;74;21109;-64
2022/06/07 11:28:23;;;;;;;4.53;1.37;;;29.70;40.60;;;;;;1934142;74;21035;-64
2022/06/07 11:30:53;;;;;;;1.55;1.15;;;29.70;40.50;;;;;;1929722;74;21135;-66
2022/06/07 11:33:42;;;;;;;4.15;1.30;;;29.80;40.50;;;;;;1933967;74;21023;-65
2022/06/07 11:36:27;;;;;;;4.22;1.90;;;29.90;40.60;;;;;;1930921;74;21122;-64
2022/06/07 11:39:01;;;;;;;4.95;1.55;;;29.90;40.60;;;;;;1933640;74;21084;-66
2022/06/07 11:41:39;;;;;;;3.90;2.45;;;29.90;40.40;;;;;;1933816;74;21096;-65
2022/06/07 11:44:14;;;;;;;7.05;1.82;;;30.00;40.70;;;;;;1933773;74;21079;-61
2022/06/07 11:46:57;;;;;;;3.00;1.55;;;30.00;40.50;;;;;;1931366;74;21136;-65
2022/06/07 11:49:29;;;;;;;5.15;2.37;;;29.90;40.70;;;;;;1933961;74;21070;-65
2022/06/07 11:52:01;;;;;;;2.67;1.30;;;29.90;40.80;;;;;;1933971;74;21143;-62
2022/06/07 11:54:36;;;;;;;4.40;1.32;;;30.00;41.00;;;;;;1933968;74;21007;-61
2022/06/07 11:57:20;;;;;;;2.92;1.47;;;30.00;40.70;;;;;;1933824;74;21070;-65
2022/06/07 11:59:51;;;;;;;3.67;1.67;;;30.00;40.70;;;;;;1934296;74;21035;-61
2022/06/07 12:02:23;;;;;;;5.40;1.50;;;30.00;40.50;;;;;;1933750;73;21015;-65
2022/06/07 12:04:54;;;;;;;4.67;1.32;;;30.00;40.60;;;;;;1933908;74;21007;-62
2022/06/07 12:07:44;;;;;;;2.95;1.20;;;29.90;40.80;;;;;;1933920;74;21528;-65
2022/06/07 12:10:25;;;;;;;4.47;2.08;;;29.80;40.90;;;;;;1934220;74;21004;-67
2022/06/07 12:12:56;;;;;;;5.12;2.17;;;29.90;41.30;;;;;;1932591;74;21015;-66
2022/06/07 12:15:34;;;;;;;4.83;1.80;;;29.90;41.20;;;;;;1932462;74;21147;-71
2022/06/07 12:18:06;;;;;;;2.77;1.30;;;29.80;41.40;;;;;;1930359;74;21039;-70
2022/06/07 12:20:41;;;;;;;4.05;1.60;;;29.70;41.30;;;;;;1933844;74;21131;-67
2022/06/07 12:23:22;;;;;;;;;;;29.70;41.50;;;;;;1936817;74;21023;-63
2022/06/07 12:26:27;;;;;;;7.95;3.17;;;29.80;41.20;;;;;;1933657;74;20156;-62
2022/06/07 12:28:58;;;;;;;2.12;1.40;;;29.80;41.80;;;;;;1934126;74;21082;-74
2022/06/07 12:31:33;;;;;;;6.35;1.80;;;29.90;41.30;;;;;;1934052;74;21018;-66
2022/06/07 12:34:04;;;;;;;3.77;1.40;;;29.90;41.10;;;;;;1932715;74;21038;-69
2022/06/07 12:36:35;;;;;;;2.50;1.32;;;29.80;40.90;;;;;;1933989;74;21034;-64
2022/06/07 12:39:07;;;;;;;12.88;1.87;;;29.70;41.20;;;;;;1933990;74;21035;-64
2022/06/07 12:41:39;;;;;;;5.35;2.47;;;29.70;41.10;;;;;;1932879;74;21100;-65
2022/06/07 12:44:10;;;;;;;9.33;2.83;;;29.70;41.30;;;;;;1933133;74;21062;-63
2022/06/07 12:46:46;;;;;;;1.90;1.20;;;29.80;41.30;;;;;;1931006;74;21082;-62
2022/06/07 12:49:30;;;;;;;4.90;1.62;;;29.90;41.50;;;;;;1934132;74;21029;-59
2022/06/07 12:52:04;;;;;;;3.58;1.50;;;29.90;41.40;;;;;;1938507;74;21101;-63
2022/06/07 12:54:35;;;;;;;4.65;2.25;;;29.90;41.30;;;;;;1946989;74;21084;-64
2022/06/07 12:57:06;;;;;;;3.22;1.60;;;29.70;41.50;;;;;;1947011;74;21096;-64
2022/06/07 12:59:41;;;;;;;5.53;1.80;;;29.80;42.00;;;;;;1945601;74;21151;-62
2022/06/07 13:02:19;;;;;;;6.90;1.47;;;29.80;41.50;;;;;;1946255;74;21461;-65
2022/06/07 13:04:54;;;;;;;2.85;1.90;;;29.80;41.60;;;;;;1947656;74;21465;-65
2022/06/07 13:07:29;;;;;;;5.95;1.60;;;29.80;41.60;;;;;;1947966;74;21042;-65
2022/06/07 13:10:04;;;;;;;4.03;1.50;;;29.80;41.60;;;;;;1947661;74;21136;-65
2022/06/07 13:12:36;;;;;;;5.60;1.70;;;29.80;41.60;;;;;;1947849;74;21011;-65
2022/06/07 13:15:07;;;;;;;6.35;3.70;;;29.80;41.80;;;;;;1947812;74;21022;-65
2022/06/07 13:17:39;;;;;;;2.27;1.62;;;29.70;41.50;;;;;;1946985;74;21542;-65
2022/06/07 13:20:11;;;;;;;4.72;1.92;;;29.70;41.50;;;;;;1947648;74;21469;-65
2022/06/07 13:22:45;;;;;;;3.10;1.65;;;29.70;41.70;;;;;;1945368;74;21104;-65
2022/06/07 13:25:25;;;;;;;5.58;2.40;;;29.60;41.90;;;;;;1947993;74;21010;-65
2022/06/07 13:28:09;;;;;;;7.83;1.77;;;29.60;42.00;;;;;;1947723;74;20990;-65
2022/06/07 13:30:44;;;;;;;7.47;1.95;;;29.60;42.10;;;;;;1947983;74;21113;-65
2022/06/07 13:33:16;;;;;;;6.17;1.22;;;29.70;42.40;;;;;;1947755;74;21080;-65
2022/06/07 13:35:49;;;;;;;7.42;1.70;;;29.70;42.30;;;;;;1947765;73;21030;-66
2022/06/07 13:38:37;;;;;;;5.90;1.53;;;29.70;42.30;;;;;;1948108;74;21093;-65